sensor_id;sensor_type;location;lat;lon;timestamp;temperature;humidity
7814;DHT22;3952;48.364;16.022;2022-09-09T00:00:13;14.50;99.90
7814;DHT22;3952;48.364;16.022;2022-09-09T00:02:44;14.50;99.90
7814;DHT22;3952;48.364;16.022;2022-09-09T00:05:22;14.50;99.90
7814;DHT22;3952;48.364;16.022;2022-09-09T00:07:55;14.40;99.90
7814;DHT22;3952;48.364;16.022;2022-09-09T00:10:29;14.40;99.90
7814;DHT22;3952;48.364;16.022;2022-09-09T00:13:02;14.40;99.90
7814;DHT22;3952;48.364;16.022;2022-09-09T00:15:36;14.30;99.90
7814;DHT22;3952;48.364;16.022;2022-09-09T00:18:14;14.30;99.90
7814;DHT22;3952;48.364;16.022;2022-09-09T00:20:49;14.20;99.90
7814;DHT22;3952;48.364;16.022;2022-09-09T00:23:24;14.30;99.90
7814;DHT22;3952;48.364;16.022;2022-09-09T00:25:59;14.20;99.90
7814;DHT22;3952;48.364;16.022;2022-09-09T00:28:27;14.20;99.90
7814;DHT22;3952;48.364;16.022;2022-09-09T00:31:01;14.10;99.90
7814;DHT22;3952;48.364;16.022;2022-09-09T00:33:35;14.10;99.90
7814;DHT22;3952;48.364;16.022;2022-09-09T00:36:12;14.10;99.90
7814;DHT22;3952;48.364;16.022;2022-09-09T00:38:45;14.10;99.90
7814;DHT22;3952;48.364;16.022;2022-09-09T00:41:21;14.10;99.90
7814;DHT22;3952;48.364;16.022;2022-09-09T00:43:57;14.00;99.90
7814;DHT22;3952;48.364;16.022;2022-09-09T00:46:47;14.00;99.90
7814;DHT22;3952;48.364;16.022;2022-09-09T00:49:26;13.90;99.90
7814;DHT22;3952;48.364;16.022;2022-09-09T00:52:08;13.90;99.90
7814;DHT22;3952;48.364;16.022;2022-09-09T00:54:47;13.90;99.90
7814;DHT22;3952;48.364;16.022;2022-09-09T00:57:25;13.80;99.90
7814;DHT22;3952;48.364;16.022;2022-09-09T00:59:59;13.90;99.90
7814;DHT22;3952;48.364;16.022;2022-09-09T01:02:38;13.80;99.90
7814;DHT22;3952;48.364;16.022;2022-09-09T01:05:10;13.90;99.90
7814;DHT22;3952;48.364;16.022;2022-09-09T01:07:44;13.80;99.90
7814;DHT22;3952;48.364;16.022;2022-09-09T01:10:21;13.90;99.90
7814;DHT22;3952;48.364;16.022;2022-09-09T01:12:54;13.90;99.90
7814;DHT22;3952;48.364;16.022;2022-09-09T01:15:26;13.80;99.90
7814;DHT22;3952;48.364;16.022;2022-09-09T01:18:00;13.70;99.90
7814;DHT22;3952;48.364;16.022;2022-09-09T01:20:34;13.70;99.90
7814;DHT22;3952;48.364;16.022;2022-09-09T01:23:28;13.80;99.90
7814;DHT22;3952;48.364;16.022;2022-09-09T01:26:15;13.70;99.90
7814;DHT22;3952;48.364;16.022;2022-09-09T01:28:45;13.70;99.90
7814;DHT22;3952;48.364;16.022;2022-09-09T01:31:16;13.70;99.90
7814;DHT22;3952;48.364;16.022;2022-09-09T01:33:44;13.60;99.90
7814;DHT22;3952;48.364;16.022;2022-09-09T01:36:17;13.60;99.90
7814;DHT22;3952;48.364;16.022;2022-09-09T01:38:47;13.40;99.90
7814;DHT22;3952;48.364;16.022;2022-09-09T01:41:16;13.40;99.90
7814;DHT22;3952;48.364;16.022;2022-09-09T01:43:43;13.50;99.90
7814;DHT22;3952;48.364;16.022;2022-09-09T01:46:11;13.50;99.90
7814;DHT22;3952;48.364;16.022;2022-09-09T01:48:40;13.50;99.90
7814;DHT22;3952;48.364;16.022;2022-09-09T01:51:09;13.50;99.90
7814;DHT22;3952;48.364;16.022;2022-09-09T01:53:37;13.50;99.90
7814;DHT22;3952;48.364;16.022;2022-09-09T01:56:17;13.40;99.90
7814;DHT22;3952;48.364;16.022;2022-09-09T01:58:57;13.40;99.90
7814;DHT22;3952;48.364;16.022;2022-09-09T02:01:34;13.30;99.90
7814;DHT22;3952;48.364;16.022;2022-09-09T02:04:07;13.20;99.90
7814;DHT22;3952;48.364;16.022;2022-09-09T02:06:40;13.20;99.90
7814;DHT22;3952;48.364;16.022;2022-09-09T02:09:09;13.10;99.90
7814;DHT22;3952;48.364;16.022;2022-09-09T02:11:41;13.10;99.90
7814;DHT22;3952;48.364;16.022;2022-09-09T02:14:13;13.10;99.90
7814;DHT22;3952;48.364;16.022;2022-09-09T02:16:47;13.10;99.90
7814;DHT22;3952;48.364;16.022;2022-09-09T02:19:19;13.10;99.90
7814;DHT22;3952;48.364;16.022;2022-09-09T02:21:53;13.10;99.90
7814;DHT22;3952;48.364;16.022;2022-09-09T02:24:22;13.10;99.90
7814;DHT22;3952;48.364;16.022;2022-09-09T02:26:53;13.20;99.90
7814;DHT22;3952;48.364;16.022;2022-09-09T02:29:23;13.20;99.90
7814;DHT22;3952;48.364;16.022;2022-09-09T02:31:53;13.20;99.90
7814;DHT22;3952;48.364;16.022;2022-09-09T02:34:24;13.20;99.90
7814;DHT22;3952;48.364;16.022;2022-09-09T02:36:54;13.30;99.90
7814;DHT22;3952;48.364;16.022;2022-09-09T02:39:22;13.20;99.90
7814;DHT22;3952;48.364;16.022;2022-09-09T02:41:50;13.10;99.90
7814;DHT22;3952;48.364;16.022;2022-09-09T02:44:19;13.00;99.90
7814;DHT22;3952;48.364;16.022;2022-09-09T02:47:00;13.00;99.90
7814;DHT22;3952;48.364;16.022;2022-09-09T02:49:40;13.00;99.90
7814;DHT22;3952;48.364;16.022;2022-09-09T02:52:14;13.00;99.90
7814;DHT22;3952;48.364;16.022;2022-09-09T02:54:42;13.00;99.90
7814;DHT22;3952;48.364;16.022;2022-09-09T02:57:16;13.10;99.90
7814;DHT22;3952;48.364;16.022;2022-09-09T02:59:45;13.10;99.90
7814;DHT22;3952;48.364;16.022;2022-09-09T03:02:13;13.00;99.90
7814;DHT22;3952;48.364;16.022;2022-09-09T03:04:41;13.00;99.90
7814;DHT22;3952;48.364;16.022;2022-09-09T03:07:10;13.00;99.90
7814;DHT22;3952;48.364;16.022;2022-09-09T03:09:38;13.00;99.90
7814;DHT22;3952;48.364;16.022;2022-09-09T03:12:05;12.90;99.90
7814;DHT22;3952;48.364;16.022;2022-09-09T03:14:34;12.90;99.90
7814;DHT22;3952;48.364;16.022;2022-09-09T03:17:01;12.90;99.90
7814;DHT22;3952;48.364;16.022;2022-09-09T03:19:28;12.90;99.90
7814;DHT22;3952;48.364;16.022;2022-09-09T03:21:56;12.90;99.90
7814;DHT22;3952;48.364;16.022;2022-09-09T03:24:24;12.80;99.90
7814;DHT22;3952;48.364;16.022;2022-09-09T03:26:51;12.80;99.90
7814;DHT22;3952;48.364;16.022;2022-09-09T03:29:18;12.80;99.90
7814;DHT22;3952;48.364;16.022;2022-09-09T03:31:47;12.70;99.90
7814;DHT22;3952;48.364;16.022;2022-09-09T03:34:14;12.70;99.90
7814;DHT22;3952;48.364;16.022;2022-09-09T03:36:41;12.70;99.90
7814;DHT22;3952;48.364;16.022;2022-09-09T03:39:08;12.60;99.90
7814;DHT22;3952;48.364;16.022;2022-09-09T03:41:36;12.60;99.90
7814;DHT22;3952;48.364;16.022;2022-09-09T03:44:04;12.60;99.90
7814;DHT22;3952;48.364;16.022;2022-09-09T03:46:31;12.50;99.90
7814;DHT22;3952;48.364;16.022;2022-09-09T03:49:00;12.60;99.90
7814;DHT22;3952;48.364;16.022;2022-09-09T03:51:28;12.60;99.90
7814;DHT22;3952;48.364;16.022;2022-09-09T03:53:56;12.60;99.90
7814;DHT22;3952;48.364;16.022;2022-09-09T03:58:51;12.50;99.90
7814;DHT22;3952;48.364;16.022;2022-09-09T04:01:18;12.60;99.90
7814;DHT22;3952;48.364;16.022;2022-09-09T04:03:46;12.50;99.90
7814;DHT22;3952;48.364;16.022;2022-09-09T04:06:14;12.50;99.90
7814;DHT22;3952;48.364;16.022;2022-09-09T04:08:42;12.50;99.90
7814;DHT22;3952;48.364;16.022;2022-09-09T04:11:11;12.50;99.90
7814;DHT22;3952;48.364;16.022;2022-09-09T04:13:38;12.50;99.90
7814;DHT22;3952;48.364;16.022;2022-09-09T04:16:06;12.50;99.90
7814;DHT22;3952;48.364;16.022;2022-09-09T04:18:33;12.50;99.90
7814;DHT22;3952;48.364;16.022;2022-09-09T04:21:01;12.40;99.90
7814;DHT22;3952;48.364;16.022;2022-09-09T04:23:30;12.40;99.90
7814;DHT22;3952;48.364;16.022;2022-09-09T04:26:01;12.40;99.90
7814;DHT22;3952;48.364;16.022;2022-09-09T04:28:30;12.40;99.90
7814;DHT22;3952;48.364;16.022;2022-09-09T04:31:04;12.40;99.90
7814;DHT22;3952;48.364;16.022;2022-09-09T04:33:32;12.40;99.90
7814;DHT22;3952;48.364;16.022;2022-09-09T04:35:59;12.40;99.90
7814;DHT22;3952;48.364;16.022;2022-09-09T04:38:26;12.40;99.90
7814;DHT22;3952;48.364;16.022;2022-09-09T04:40:55;12.40;99.90
7814;DHT22;3952;48.364;16.022;2022-09-09T04:43:23;12.40;99.90
7814;DHT22;3952;48.364;16.022;2022-09-09T04:45:51;12.40;99.90
7814;DHT22;3952;48.364;16.022;2022-09-09T04:48:19;12.40;99.90
7814;DHT22;3952;48.364;16.022;2022-09-09T04:50:54;12.40;99.90
7814;DHT22;3952;48.364;16.022;2022-09-09T04:53:22;12.40;99.90
7814;DHT22;3952;48.364;16.022;2022-09-09T04:55:51;12.40;99.90
7814;DHT22;3952;48.364;16.022;2022-09-09T04:58:19;12.40;99.90
7814;DHT22;3952;48.364;16.022;2022-09-09T05:00:48;12.40;99.90
7814;DHT22;3952;48.364;16.022;2022-09-09T05:03:17;12.30;99.90
7814;DHT22;3952;48.364;16.022;2022-09-09T05:05:44;12.30;99.90
7814;DHT22;3952;48.364;16.022;2022-09-09T05:08:12;12.40;99.90
7814;DHT22;3952;48.364;16.022;2022-09-09T05:10:39;12.30;99.90
7814;DHT22;3952;48.364;16.022;2022-09-09T05:13:07;12.30;99.90
7814;DHT22;3952;48.364;16.022;2022-09-09T05:15:36;12.30;99.90
7814;DHT22;3952;48.364;16.022;2022-09-09T05:18:03;12.30;99.90
7814;DHT22;3952;48.364;16.022;2022-09-09T05:20:30;12.40;99.90
7814;DHT22;3952;48.364;16.022;2022-09-09T05:22:58;12.50;99.90
7814;DHT22;3952;48.364;16.022;2022-09-09T05:25:25;12.50;99.90
7814;DHT22;3952;48.364;16.022;2022-09-09T05:27:52;13.20;99.90
7814;DHT22;3952;48.364;16.022;2022-09-09T05:30:21;12.50;99.90
7814;DHT22;3952;48.364;16.022;2022-09-09T05:32:51;12.50;99.90
7814;DHT22;3952;48.364;16.022;2022-09-09T05:35:18;12.50;99.90
7814;DHT22;3952;48.364;16.022;2022-09-09T05:37:46;12.50;99.90
7814;DHT22;3952;48.364;16.022;2022-09-09T05:40:14;12.50;99.90
7814;DHT22;3952;48.364;16.022;2022-09-09T05:42:41;12.50;99.90
7814;DHT22;3952;48.364;16.022;2022-09-09T05:45:09;12.60;99.90
7814;DHT22;3952;48.364;16.022;2022-09-09T05:47:36;12.60;99.90
7814;DHT22;3952;48.364;16.022;2022-09-09T05:50:05;12.70;99.90
7814;DHT22;3952;48.364;16.022;2022-09-09T05:52:33;12.80;99.90
7814;DHT22;3952;48.364;16.022;2022-09-09T05:55:00;12.80;99.90
7814;DHT22;3952;48.364;16.022;2022-09-09T05:57:30;12.90;99.90
7814;DHT22;3952;48.364;16.022;2022-09-09T05:59:57;13.00;99.90
7814;DHT22;3952;48.364;16.022;2022-09-09T06:02:25;13.00;99.90
7814;DHT22;3952;48.364;16.022;2022-09-09T06:04:52;13.10;99.90
7814;DHT22;3952;48.364;16.022;2022-09-09T06:07:22;13.10;99.90
7814;DHT22;3952;48.364;16.022;2022-09-09T06:09:49;13.20;99.90
7814;DHT22;3952;48.364;16.022;2022-09-09T06:12:17;13.30;99.90
7814;DHT22;3952;48.364;16.022;2022-09-09T06:14:44;13.40;99.90
7814;DHT22;3952;48.364;16.022;2022-09-09T06:17:11;13.40;99.90
7814;DHT22;3952;48.364;16.022;2022-09-09T06:19:39;13.50;99.90
7814;DHT22;3952;48.364;16.022;2022-09-09T06:22:06;13.60;99.90
7814;DHT22;3952;48.364;16.022;2022-09-09T06:24:34;13.60;99.90
7814;DHT22;3952;48.364;16.022;2022-09-09T06:27:01;13.70;99.90
7814;DHT22;3952;48.364;16.022;2022-09-09T06:29:29;13.80;99.90
7814;DHT22;3952;48.364;16.022;2022-09-09T06:31:56;13.90;99.90
7814;DHT22;3952;48.364;16.022;2022-09-09T06:34:24;14.00;99.90
7814;DHT22;3952;48.364;16.022;2022-09-09T06:36:51;14.10;99.90
7814;DHT22;3952;48.364;16.022;2022-09-09T06:39:18;14.20;99.90
7814;DHT22;3952;48.364;16.022;2022-09-09T06:41:47;14.30;99.90
7814;DHT22;3952;48.364;16.022;2022-09-09T06:44:15;14.50;99.90
7814;DHT22;3952;48.364;16.022;2022-09-09T06:46:42;14.60;99.90
7814;DHT22;3952;48.364;16.022;2022-09-09T06:49:10;14.80;99.90
7814;DHT22;3952;48.364;16.022;2022-09-09T06:51:38;14.90;99.90
7814;DHT22;3952;48.364;16.022;2022-09-09T06:54:08;15.00;99.90
7814;DHT22;3952;48.364;16.022;2022-09-09T06:56:38;15.10;99.90
7814;DHT22;3952;48.364;16.022;2022-09-09T06:59:08;15.20;99.90
7814;DHT22;3952;48.364;16.022;2022-09-09T07:01:38;15.30;99.90
7814;DHT22;3952;48.364;16.022;2022-09-09T07:04:06;15.40;99.90
7814;DHT22;3952;48.364;16.022;2022-09-09T07:06:38;15.40;99.90
7814;DHT22;3952;48.364;16.022;2022-09-09T07:09:06;15.50;99.90
7814;DHT22;3952;48.364;16.022;2022-09-09T07:11:38;15.60;99.90
7814;DHT22;3952;48.364;16.022;2022-09-09T07:14:07;15.70;99.90
7814;DHT22;3952;48.364;16.022;2022-09-09T07:16:34;15.80;99.90
7814;DHT22;3952;48.364;16.022;2022-09-09T07:19:03;15.90;99.90
7814;DHT22;3952;48.364;16.022;2022-09-09T07:21:31;16.00;99.90
7814;DHT22;3952;48.364;16.022;2022-09-09T07:23:59;16.10;99.90
7814;DHT22;3952;48.364;16.022;2022-09-09T07:26:29;16.20;99.90
7814;DHT22;3952;48.364;16.022;2022-09-09T07:28:56;16.40;99.90
7814;DHT22;3952;48.364;16.022;2022-09-09T07:31:26;16.50;99.90
7814;DHT22;3952;48.364;16.022;2022-09-09T07:33:54;16.60;99.90
7814;DHT22;3952;48.364;16.022;2022-09-09T07:36:22;16.70;99.90
7814;DHT22;3952;48.364;16.022;2022-09-09T07:38:51;16.90;99.90
7814;DHT22;3952;48.364;16.022;2022-09-09T07:41:21;17.10;99.90
7814;DHT22;3952;48.364;16.022;2022-09-09T07:43:50;17.30;99.90
7814;DHT22;3952;48.364;16.022;2022-09-09T07:46:20;17.50;99.90
7814;DHT22;3952;48.364;16.022;2022-09-09T07:48:50;17.70;99.90
7814;DHT22;3952;48.364;16.022;2022-09-09T07:51:20;18.00;99.90
7814;DHT22;3952;48.364;16.022;2022-09-09T07:53:51;18.20;99.90
7814;DHT22;3952;48.364;16.022;2022-09-09T07:56:18;18.40;99.90
7814;DHT22;3952;48.364;16.022;2022-09-09T07:58:51;18.50;99.90
7814;DHT22;3952;48.364;16.022;2022-09-09T08:01:20;18.60;99.90
7814;DHT22;3952;48.364;16.022;2022-09-09T08:03:53;18.70;99.90
7814;DHT22;3952;48.364;16.022;2022-09-09T08:06:20;19.10;99.90
7814;DHT22;3952;48.364;16.022;2022-09-09T08:08:50;18.90;99.90
7814;DHT22;3952;48.364;16.022;2022-09-09T08:11:18;19.10;99.90
7814;DHT22;3952;48.364;16.022;2022-09-09T08:13:45;19.20;99.90
7814;DHT22;3952;48.364;16.022;2022-09-09T08:16:16;19.40;99.90
7814;DHT22;3952;48.364;16.022;2022-09-09T08:18:43;19.60;99.90
7814;DHT22;3952;48.364;16.022;2022-09-09T08:21:14;19.70;99.90
7814;DHT22;3952;48.364;16.022;2022-09-09T08:23:45;20.30;99.90
7814;DHT22;3952;48.364;16.022;2022-09-09T08:26:14;19.70;99.90
7814;DHT22;3952;48.364;16.022;2022-09-09T08:28:42;19.80;99.90
7814;DHT22;3952;48.364;16.022;2022-09-09T08:31:12;19.80;99.90
7814;DHT22;3952;48.364;16.022;2022-09-09T08:33:40;20.00;99.90
7814;DHT22;3952;48.364;16.022;2022-09-09T08:36:12;20.10;99.90
7814;DHT22;3952;48.364;16.022;2022-09-09T08:38:41;20.20;99.90
7814;DHT22;3952;48.364;16.022;2022-09-09T08:44:03;20.40;99.90
7814;DHT22;3952;48.364;16.022;2022-09-09T08:46:37;20.40;99.90
7814;DHT22;3952;48.364;16.022;2022-09-09T08:49:35;20.40;99.90
7814;DHT22;3952;48.364;16.022;2022-09-09T08:52:12;20.40;99.90
7814;DHT22;3952;48.364;16.022;2022-09-09T08:54:42;20.30;99.90
7814;DHT22;3952;48.364;16.022;2022-09-09T08:57:14;20.40;99.90
7814;DHT22;3952;48.364;16.022;2022-09-09T08:59:41;20.40;99.90
7814;DHT22;3952;48.364;16.022;2022-09-09T09:02:15;20.50;99.90
7814;DHT22;3952;48.364;16.022;2022-09-09T09:05:04;20.60;99.90
7814;DHT22;3952;48.364;16.022;2022-09-09T09:07:48;20.70;99.90
7814;DHT22;3952;48.364;16.022;2022-09-09T09:10:28;20.90;99.90
7814;DHT22;3952;48.364;16.022;2022-09-09T09:13:01;21.00;99.90
7814;DHT22;3952;48.364;16.022;2022-09-09T09:15:32;21.10;99.90
7814;DHT22;3952;48.364;16.022;2022-09-09T09:18:03;21.30;99.90
7814;DHT22;3952;48.364;16.022;2022-09-09T09:20:36;21.30;99.90
7814;DHT22;3952;48.364;16.022;2022-09-09T09:23:17;21.40;99.90
7814;DHT22;3952;48.364;16.022;2022-09-09T09:25:46;21.50;99.90
7814;DHT22;3952;48.364;16.022;2022-09-09T09:28:17;21.50;99.90
7814;DHT22;3952;48.364;16.022;2022-09-09T09:30:47;21.60;99.90
7814;DHT22;3952;48.364;16.022;2022-09-09T09:33:21;21.60;99.90
7814;DHT22;3952;48.364;16.022;2022-09-09T09:35:51;21.60;99.90
7814;DHT22;3952;48.364;16.022;2022-09-09T09:38:22;21.60;99.90
7814;DHT22;3952;48.364;16.022;2022-09-09T09:40:51;21.60;99.90
7814;DHT22;3952;48.364;16.022;2022-09-09T09:43:23;21.60;99.90
7814;DHT22;3952;48.364;16.022;2022-09-09T09:45:51;21.70;99.90
7814;DHT22;3952;48.364;16.022;2022-09-09T09:48:18;21.80;99.90
7814;DHT22;3952;48.364;16.022;2022-09-09T09:50:50;21.80;99.90
7814;DHT22;3952;48.364;16.022;2022-09-09T09:53:25;21.90;99.90
7814;DHT22;3952;48.364;16.022;2022-09-09T09:55:58;22.00;99.90
7814;DHT22;3952;48.364;16.022;2022-09-09T09:58:29;22.10;99.90
7814;DHT22;3952;48.364;16.022;2022-09-09T10:00:57;22.10;99.90
7814;DHT22;3952;48.364;16.022;2022-09-09T10:03:27;22.20;99.90
7814;DHT22;3952;48.364;16.022;2022-09-09T10:05:56;22.20;99.90
7814;DHT22;3952;48.364;16.022;2022-09-09T10:08:26;22.30;99.90
7814;DHT22;3952;48.364;16.022;2022-09-09T10:11:05;22.30;99.90
7814;DHT22;3952;48.364;16.022;2022-09-09T10:13:42;22.40;99.90
7814;DHT22;3952;48.364;16.022;2022-09-09T10:16:22;22.30;99.90
7814;DHT22;3952;48.364;16.022;2022-09-09T10:19:05;22.40;99.90
7814;DHT22;3952;48.364;16.022;2022-09-09T10:22:06;22.40;99.90
7814;DHT22;3952;48.364;16.022;2022-09-09T10:27:38;22.50;99.90
7814;DHT22;3952;48.364;16.022;2022-09-09T10:30:14;22.60;99.90
7814;DHT22;3952;48.364;16.022;2022-09-09T10:32:48;22.80;99.90
7814;DHT22;3952;48.364;16.022;2022-09-09T10:35:27;23.00;99.90
7814;DHT22;3952;48.364;16.022;2022-09-09T10:38:16;23.20;99.90
7814;DHT22;3952;48.364;16.022;2022-09-09T10:41:06;23.30;99.90
7814;DHT22;3952;48.364;16.022;2022-09-09T10:43:56;23.50;99.90
7814;DHT22;3952;48.364;16.022;2022-09-09T10:46:31;23.70;99.90
7814;DHT22;3952;48.364;16.022;2022-09-09T10:49:10;23.70;99.90
7814;DHT22;3952;48.364;16.022;2022-09-09T10:51:48;23.70;99.90
7814;DHT22;3952;48.364;16.022;2022-09-09T10:54:31;23.70;99.90
7814;DHT22;3952;48.364;16.022;2022-09-09T10:57:05;23.70;99.90
7814;DHT22;3952;48.364;16.022;2022-09-09T10:59:40;23.70;99.90
7814;DHT22;3952;48.364;16.022;2022-09-09T11:02:15;23.70;99.90
7814;DHT22;3952;48.364;16.022;2022-09-09T11:04:49;23.80;99.90
7814;DHT22;3952;48.364;16.022;2022-09-09T11:07:37;23.90;99.90
7814;DHT22;3952;48.364;16.022;2022-09-09T11:10:18;24.10;99.90
7814;DHT22;3952;48.364;16.022;2022-09-09T11:12:48;24.20;99.90
7814;DHT22;3952;48.364;16.022;2022-09-09T11:15:22;24.40;99.90
7814;DHT22;3952;48.364;16.022;2022-09-09T11:17:53;24.40;99.90
7814;DHT22;3952;48.364;16.022;2022-09-09T11:20:23;24.40;99.90
7814;DHT22;3952;48.364;16.022;2022-09-09T11:22:53;24.40;99.90
7814;DHT22;3952;48.364;16.022;2022-09-09T11:25:27;24.50;99.90
7814;DHT22;3952;48.364;16.022;2022-09-09T11:28:11;24.50;99.90
7814;DHT22;3952;48.364;16.022;2022-09-09T11:30:54;24.50;99.90
7814;DHT22;3952;48.364;16.022;2022-09-09T11:33:49;24.50;99.90
7814;DHT22;3952;48.364;16.022;2022-09-09T11:42:24;24.20;99.90
7814;DHT22;3952;48.364;16.022;2022-09-09T11:44:51;24.10;99.90
7814;DHT22;3952;48.364;16.022;2022-09-09T11:47:26;24.00;99.90
7814;DHT22;3952;48.364;16.022;2022-09-09T11:50:06;24.00;99.90
7814;DHT22;3952;48.364;16.022;2022-09-09T11:52:37;24.10;99.90
7814;DHT22;3952;48.364;16.022;2022-09-09T11:55:10;24.00;99.90
7814;DHT22;3952;48.364;16.022;2022-09-09T11:57:39;24.10;99.90
7814;DHT22;3952;48.364;16.022;2022-09-09T12:00:33;24.00;99.90
7814;DHT22;3952;48.364;16.022;2022-09-09T12:03:03;23.90;99.90
7814;DHT22;3952;48.364;16.022;2022-09-09T12:05:40;23.90;99.90
7814;DHT22;3952;48.364;16.022;2022-09-09T12:08:10;23.90;99.90
7814;DHT22;3952;48.364;16.022;2022-09-09T12:10:39;23.90;99.90
7814;DHT22;3952;48.364;16.022;2022-09-09T12:13:16;23.90;99.90
7814;DHT22;3952;48.364;16.022;2022-09-09T12:15:49;23.90;99.90
7814;DHT22;3952;48.364;16.022;2022-09-09T12:18:23;23.80;99.90
7814;DHT22;3952;48.364;16.022;2022-09-09T12:20:57;23.80;99.90
7814;DHT22;3952;48.364;16.022;2022-09-09T12:23:34;23.80;99.90
7814;DHT22;3952;48.364;16.022;2022-09-09T12:26:26;23.80;99.90
7814;DHT22;3952;48.364;16.022;2022-09-09T12:29:15;23.70;99.90
7814;DHT22;3952;48.364;16.022;2022-09-09T12:31:50;23.60;99.90
7814;DHT22;3952;48.364;16.022;2022-09-09T12:34:30;23.50;99.90
7814;DHT22;3952;48.364;16.022;2022-09-09T12:37:04;23.50;99.90
7814;DHT22;3952;48.364;16.022;2022-09-09T12:39:35;23.50;99.90
7814;DHT22;3952;48.364;16.022;2022-09-09T12:42:04;23.40;99.90
7814;DHT22;3952;48.364;16.022;2022-09-09T12:44:31;23.40;99.90
7814;DHT22;3952;48.364;16.022;2022-09-09T12:47:01;23.40;99.90
7814;DHT22;3952;48.364;16.022;2022-09-09T12:49:33;23.40;99.90
7814;DHT22;3952;48.364;16.022;2022-09-09T12:52:04;23.30;99.90
7814;DHT22;3952;48.364;16.022;2022-09-09T12:54:35;23.30;99.90
7814;DHT22;3952;48.364;16.022;2022-09-09T12:57:03;23.20;99.90
7814;DHT22;3952;48.364;16.022;2022-09-09T12:59:36;23.20;99.90
7814;DHT22;3952;48.364;16.022;2022-09-09T13:02:17;23.20;99.90
7814;DHT22;3952;48.364;16.022;2022-09-09T13:04:46;23.10;99.90
7814;DHT22;3952;48.364;16.022;2022-09-09T13:07:16;23.00;99.90
7814;DHT22;3952;48.364;16.022;2022-09-09T13:09:44;23.00;99.90
7814;DHT22;3952;48.364;16.022;2022-09-09T13:12:14;23.00;99.90
7814;DHT22;3952;48.364;16.022;2022-09-09T13:14:45;22.90;99.90
7814;DHT22;3952;48.364;16.022;2022-09-09T13:17:20;22.90;99.90
7814;DHT22;3952;48.364;16.022;2022-09-09T13:19:50;22.90;99.90
7814;DHT22;3952;48.364;16.022;2022-09-09T13:22:23;22.90;99.90
7814;DHT22;3952;48.364;16.022;2022-09-09T13:25:05;22.80;99.90
7814;DHT22;3952;48.364;16.022;2022-09-09T13:27:34;22.80;99.90
7814;DHT22;3952;48.364;16.022;2022-09-09T13:30:19;22.70;99.90
7814;DHT22;3952;48.364;16.022;2022-09-09T13:33:00;22.70;99.90
7814;DHT22;3952;48.364;16.022;2022-09-09T13:35:29;22.60;99.90
7814;DHT22;3952;48.364;16.022;2022-09-09T13:37:57;22.60;99.90
7814;DHT22;3952;48.364;16.022;2022-09-09T13:40:25;22.50;99.90
7814;DHT22;3952;48.364;16.022;2022-09-09T13:42:55;22.40;99.90
7814;DHT22;3952;48.364;16.022;2022-09-09T13:45:25;22.30;99.90
7814;DHT22;3952;48.364;16.022;2022-09-09T13:47:53;22.10;99.90
7814;DHT22;3952;48.364;16.022;2022-09-09T13:50:22;22.00;99.90
7814;DHT22;3952;48.364;16.022;2022-09-09T13:52:53;21.80;99.90
7814;DHT22;3952;48.364;16.022;2022-09-09T13:55:21;21.60;99.90
7814;DHT22;3952;48.364;16.022;2022-09-09T13:57:52;21.30;99.90
7814;DHT22;3952;48.364;16.022;2022-09-09T14:00:20;20.90;99.90
7814;DHT22;3952;48.364;16.022;2022-09-09T14:02:47;20.70;99.90
7814;DHT22;3952;48.364;16.022;2022-09-09T14:05:15;20.40;99.90
7814;DHT22;3952;48.364;16.022;2022-09-09T14:07:44;20.10;99.90
7814;DHT22;3952;48.364;16.022;2022-09-09T14:10:13;19.90;99.90
7814;DHT22;3952;48.364;16.022;2022-09-09T14:12:40;19.80;99.90
7814;DHT22;3952;48.364;16.022;2022-09-09T14:15:09;19.80;99.90
7814;DHT22;3952;48.364;16.022;2022-09-09T14:17:37;19.70;99.90
7814;DHT22;3952;48.364;16.022;2022-09-09T14:20:06;19.70;99.90
7814;DHT22;3952;48.364;16.022;2022-09-09T14:22:34;19.70;99.90
7814;DHT22;3952;48.364;16.022;2022-09-09T14:25:02;19.70;99.90
7814;DHT22;3952;48.364;16.022;2022-09-09T14:27:31;19.60;99.90
7814;DHT22;3952;48.364;16.022;2022-09-09T14:29:58;19.70;99.90
7814;DHT22;3952;48.364;16.022;2022-09-09T14:32:26;19.60;99.90
7814;DHT22;3952;48.364;16.022;2022-09-09T14:34:54;19.60;99.90
7814;DHT22;3952;48.364;16.022;2022-09-09T14:37:22;19.50;99.90
7814;DHT22;3952;48.364;16.022;2022-09-09T14:39:49;19.50;99.90
7814;DHT22;3952;48.364;16.022;2022-09-09T14:42:17;19.50;99.90
7814;DHT22;3952;48.364;16.022;2022-09-09T14:44:46;19.50;99.90
7814;DHT22;3952;48.364;16.022;2022-09-09T14:47:13;19.50;99.90
7814;DHT22;3952;48.364;16.022;2022-09-09T14:49:40;19.40;99.90
7814;DHT22;3952;48.364;16.022;2022-09-09T14:52:07;19.30;99.90
7814;DHT22;3952;48.364;16.022;2022-09-09T14:54:35;19.20;99.90
7814;DHT22;3952;48.364;16.022;2022-09-09T14:57:02;19.00;99.90
7814;DHT22;3952;48.364;16.022;2022-09-09T14:59:30;19.00;99.90
7814;DHT22;3952;48.364;16.022;2022-09-09T15:01:58;19.00;99.90
7814;DHT22;3952;48.364;16.022;2022-09-09T15:04:29;18.90;99.90
7814;DHT22;3952;48.364;16.022;2022-09-09T15:06:56;18.90;99.90
7814;DHT22;3952;48.364;16.022;2022-09-09T15:09:24;18.80;99.90
7814;DHT22;3952;48.364;16.022;2022-09-09T15:11:51;18.80;99.90
7814;DHT22;3952;48.364;16.022;2022-09-09T15:14:18;18.80;99.90
7814;DHT22;3952;48.364;16.022;2022-09-09T15:16:46;18.80;99.90
7814;DHT22;3952;48.364;16.022;2022-09-09T15:19:15;18.80;99.90
7814;DHT22;3952;48.364;16.022;2022-09-09T15:21:42;18.80;99.90
7814;DHT22;3952;48.364;16.022;2022-09-09T15:24:09;18.80;99.90
7814;DHT22;3952;48.364;16.022;2022-09-09T15:26:37;18.90;99.90
7814;DHT22;3952;48.364;16.022;2022-09-09T15:29:05;18.90;99.90
7814;DHT22;3952;48.364;16.022;2022-09-09T15:31:33;18.90;99.90
7814;DHT22;3952;48.364;16.022;2022-09-09T15:34:02;18.80;99.90
7814;DHT22;3952;48.364;16.022;2022-09-09T15:36:32;18.80;99.90
7814;DHT22;3952;48.364;16.022;2022-09-09T15:39:00;18.70;99.90
7814;DHT22;3952;48.364;16.022;2022-09-09T15:41:28;18.80;99.90
7814;DHT22;3952;48.364;16.022;2022-09-09T15:43:57;18.80;99.90
7814;DHT22;3952;48.364;16.022;2022-09-09T15:46:28;18.80;99.90
7814;DHT22;3952;48.364;16.022;2022-09-09T15:48:56;18.80;99.90
7814;DHT22;3952;48.364;16.022;2022-09-09T15:51:24;18.80;99.90
7814;DHT22;3952;48.364;16.022;2022-09-09T15:53:58;18.80;99.90
7814;DHT22;3952;48.364;16.022;2022-09-09T15:56:27;18.80;99.90
7814;DHT22;3952;48.364;16.022;2022-09-09T15:58:56;18.80;99.90
7814;DHT22;3952;48.364;16.022;2022-09-09T16:01:24;18.80;99.90
7814;DHT22;3952;48.364;16.022;2022-09-09T16:03:52;18.80;99.90
7814;DHT22;3952;48.364;16.022;2022-09-09T16:06:22;18.70;99.90
7814;DHT22;3952;48.364;16.022;2022-09-09T16:08:50;18.70;99.90
7814;DHT22;3952;48.364;16.022;2022-09-09T16:11:21;18.60;99.90
7814;DHT22;3952;48.364;16.022;2022-09-09T16:13:50;18.60;99.90
7814;DHT22;3952;48.364;16.022;2022-09-09T16:16:19;18.50;99.90
7814;DHT22;3952;48.364;16.022;2022-09-09T16:18:49;18.50;99.90
7814;DHT22;3952;48.364;16.022;2022-09-09T16:21:19;18.50;99.90
7814;DHT22;3952;48.364;16.022;2022-09-09T16:23:47;18.50;99.90